Time;durP1;ratioP1;P1;durP2;ratioP2;P2;SDS_P1;SDS_P2;PMS_P1;PMS_P2;Temp;Humidity;BMP_temperature;BMP_pressure;BME280_temperature;BME280_humidity;BME280_pressure;Samples;Min_cycle;Max_cycle;Signal;HPM_P1;HPM_P2
2022/11/25 00:00:30;;;;;;;12.73;8.13;;;;;;;;;;1039056;28;20037;-77
2022/11/25 00:01:07;;;;;;;12.80;7.20;;;;;;;;;;1034922;28;20521;-77
2022/11/25 00:01:38;;;;;;;11.77;7.65;;;;;;;;;;1036594;28;20425;-77
2022/11/25 00:02:08;;;;;;;9.95;5.68;;;;;;;;;;1036043;28;20108;-77
2022/11/25 00:02:43;;;;;;;14.50;6.75;;;;;;;;;;1038875;28;20029;-77
2022/11/25 00:03:14;;;;;;;16.60;8.25;;;;;;;;;;1038987;28;20119;-77
2022/11/25 00:03:44;;;;;;;12.60;6.80;;;;;;;;;;1035275;28;20072;-77
2022/11/25 00:04:15;;;;;;;12.70;7.13;;;;;;;;;;1035131;28;20041;-77
2022/11/25 00:04:45;;;;;;;14.82;6.40;;;;;;;;;;1035204;28;20014;-77
2022/11/25 00:05:16;;;;;;;18.25;9.30;;;;;;;;;;1039512;28;20084;-77
2022/11/25 00:05:47;;;;;;;15.98;8.13;;;;;;;;;;1039770;28;20022;-77
2022/11/25 00:06:22;;;;;;;10.55;5.78;;;;;;;;;;1039681;28;20025;-77
2022/11/25 00:06:52;;;;;;;20.30;6.90;;;;;;;;;;1039839;28;20021;-77
2022/11/25 00:07:23;;;;;;;13.63;6.70;;;;;;;;;;1039791;28;20053;-77
2022/11/25 00:07:53;;;;;;;12.52;5.88;;;;;;;;;;1039243;28;20025;-77
2022/11/25 00:08:24;;;;;;;12.50;7.88;;;;;;;;;;1039718;28;20020;-77
2022/11/25 00:08:55;;;;;;;10.93;6.45;;;;;;;;;;1039176;28;20029;-77
2022/11/25 00:09:26;;;;;;;14.20;7.03;;;;;;;;;;1039143;28;20025;-77
2022/11/25 00:09:57;;;;;;;16.70;7.68;;;;;;;;;;1039599;28;20389;-77
2022/11/25 00:10:27;;;;;;;8.95;4.90;;;;;;;;;;1039910;28;20199;-77
2022/11/25 00:10:59;;;;;;;16.27;7.35;;;;;;;;;;1039596;28;20028;-77
2022/11/25 00:11:30;;;;;;;13.65;6.40;;;;;;;;;;1039511;28;20057;-77
2022/11/25 00:12:01;;;;;;;18.38;7.18;;;;;;;;;;1039299;28;20380;-77
2022/11/25 00:12:31;;;;;;;7.30;5.25;;;;;;;;;;1039589;28;20424;-77
2022/11/25 00:13:02;;;;;;;14.18;8.43;;;;;;;;;;1039142;28;20021;-77
2022/11/25 00:13:33;;;;;;;16.73;8.18;;;;;;;;;;1038428;28;20029;-77
2022/11/25 00:14:04;;;;;;;19.08;8.55;;;;;;;;;;1039597;28;20014;-77
2022/11/25 00:14:35;;;;;;;13.23;6.25;;;;;;;;;;1040134;28;20021;-77
2022/11/25 00:15:05;;;;;;;10.48;5.68;;;;;;;;;;1039768;28;20111;-77
2022/11/25 00:15:36;;;;;;;11.50;5.78;;;;;;;;;;1039722;28;20439;-77
2022/11/25 00:16:07;;;;;;;16.25;7.20;;;;;;;;;;1040217;28;20035;-77
2022/11/25 00:16:38;;;;;;;14.45;6.82;;;;;;;;;;1039653;28;20029;-77
2022/11/25 00:17:09;;;;;;;11.40;5.97;;;;;;;;;;1039489;28;20021;-77
2022/11/25 00:17:39;;;;;;;13.15;6.68;;;;;;;;;;1039583;28;20013;-77
2022/11/25 00:18:10;;;;;;;13.05;7.28;;;;;;;;;;1039314;28;20032;-77
2022/11/25 00:18:44;;;;;;;15.40;6.93;;;;;;;;;;1039427;28;20073;-77
2022/11/25 00:19:16;;;;;;;13.45;6.90;;;;;;;;;;1039307;28;20397;-77
2022/11/25 00:19:47;;;;;;;9.95;7.03;;;;;;;;;;1039106;28;20025;-77
2022/11/25 00:20:20;;;;;;;12.80;6.60;;;;;;;;;;1038603;28;20030;-77
2022/11/25 00:20:50;;;;;;;13.57;5.72;;;;;;;;;;1039576;28;20083;-77
2022/11/25 00:21:22;;;;;;;11.23;5.82;;;;;;;;;;1039684;28;20098;-77
2022/11/25 00:21:52;;;;;;;10.88;6.80;;;;;;;;;;1039837;28;20104;-77
2022/11/25 00:22:23;;;;;;;8.43;5.35;;;;;;;;;;1039792;28;20029;-77
2022/11/25 00:22:54;;;;;;;8.43;5.45;;;;;;;;;;1039429;28;20053;-77
2022/11/25 00:23:24;;;;;;;8.45;4.85;;;;;;;;;;1039834;28;20032;-77
2022/11/25 00:23:56;;;;;;;14.07;6.18;;;;;;;;;;1039180;28;20057;-77
2022/11/25 00:24:26;;;;;;;9.48;6.22;;;;;;;;;;1039162;28;20048;-76
2022/11/25 00:24:57;;;;;;;14.90;5.97;;;;;;;;;;1039120;28;20108;-76
2022/11/25 00:25:28;;;;;;;8.35;5.18;;;;;;;;;;1039498;28;20025;-76
2022/11/25 00:26:04;;;;;;;11.77;6.40;;;;;;;;;;1039655;28;20021;-76
2022/11/25 00:26:35;;;;;;;12.07;6.45;;;;;;;;;;1039827;28;20068;-76
2022/11/25 00:27:05;;;;;;;18.80;7.15;;;;;;;;;;1039608;28;20051;-76
2022/11/25 00:27:36;;;;;;;14.82;6.55;;;;;;;;;;1039383;28;20444;-76
2022/11/25 00:28:07;;;;;;;12.50;6.13;;;;;;;;;;1039252;28;20048;-76
2022/11/25 00:28:38;;;;;;;14.75;6.45;;;;;;;;;;1039572;28;20394;-76
2022/11/25 00:29:09;;;;;;;18.75;6.80;;;;;;;;;;1039135;28;20032;-76
2022/11/25 00:29:40;;;;;;;15.65;6.63;;;;;;;;;;1039578;28;20026;-76
2022/11/25 00:30:10;;;;;;;12.35;6.60;;;;;;;;;;1039819;28;20125;-76
2022/11/25 00:30:41;;;;;;;17.80;9.13;;;;;;;;;;1039227;28;20113;-76
2022/11/25 00:31:13;;;;;;;16.52;6.68;;;;;;;;;;1039348;28;20386;-76
2022/11/25 00:31:43;;;;;;;15.02;7.88;;;;;;;;;;1039350;28;20022;-76
2022/11/25 00:32:14;;;;;;;17.63;8.93;;;;;;;;;;1039407;28;20462;-76
2022/11/25 00:32:45;;;;;;;11.82;5.65;;;;;;;;;;1039381;28;20024;-76
2022/11/25 00:33:17;;;;;;;13.30;7.22;;;;;;;;;;1039152;28;20025;-76
2022/11/25 00:33:48;;;;;;;18.17;7.07;;;;;;;;;;1039216;28;20029;-76
2022/11/25 00:34:18;;;;;;;16.52;6.60;;;;;;;;;;1039423;28;20025;-76
2022/11/25 00:34:49;;;;;;;18.58;6.90;;;;;;;;;;1039305;28;20433;-76
2022/11/25 00:35:20;;;;;;;14.85;5.97;;;;;;;;;;1039707;28;20107;-76
2022/11/25 00:35:50;;;;;;;9.23;5.28;;;;;;;;;;1039593;28;20034;-76
2022/11/25 00:36:29;;;;;;;21.92;7.32;;;;;;;;;;1039323;28;20014;-76
2022/11/25 00:36:59;;;;;;;17.75;6.95;;;;;;;;;;1039106;28;20230;-76
2022/11/25 00:37:30;;;;;;;12.27;6.28;;;;;;;;;;1039328;28;20029;-76
2022/11/25 00:38:01;;;;;;;21.08;8.27;;;;;;;;;;1039325;28;20521;-76
2022/11/25 00:38:32;;;;;;;16.05;6.60;;;;;;;;;;1039439;28;20022;-76
2022/11/25 00:39:07;;;;;;;10.95;6.05;;;;;;;;;;1039187;28;20029;-76
2022/11/25 00:39:37;;;;;;;14.00;6.82;;;;;;;;;;1039717;28;20428;-76
2022/11/25 00:40:08;;;;;;;14.93;7.53;;;;;;;;;;1039554;28;20029;-76
2022/11/25 00:40:39;;;;;;;13.45;7.13;;;;;;;;;;1039745;28;20551;-76
2022/11/25 00:44:39;;;;;;;23.45;8.80;;;;;;;;;;1039697;28;20112;-76
2022/11/25 00:45:10;;;;;;;17.52;8.43;;;;;;;;;;1039042;28;20033;-76
2022/11/25 00:45:41;;;;;;;11.15;5.93;;;;;;;;;;1039299;28;20303;-76
2022/11/25 00:46:11;;;;;;;23.40;7.07;;;;;;;;;;1037003;28;20033;-76
2022/11/25 00:46:42;;;;;;;14.88;7.00;;;;;;;;;;1038749;28;20029;-76
2022/11/25 00:47:17;;;;;;;14.13;6.47;;;;;;;;;;1039516;28;20021;-76
2022/11/25 00:47:47;;;;;;;20.63;7.40;;;;;;;;;;1039340;28;20461;-76
2022/11/25 00:48:18;;;;;;;12.55;7.00;;;;;;;;;;1039690;28;20025;-76
2022/11/25 00:48:48;;;;;;;16.42;7.05;;;;;;;;;;1039625;28;20469;-76
2022/11/25 00:49:19;;;;;;;20.48;6.25;;;;;;;;;;1039529;28;20033;-76
2022/11/25 00:49:51;;;;;;;15.07;7.32;;;;;;;;;;1039625;28;20029;-76
2022/11/25 00:50:21;;;;;;;17.52;7.05;;;;;;;;;;1039805;28;20048;-76
2022/11/25 00:50:52;;;;;;;12.88;8.32;;;;;;;;;;1039136;28;20032;-76
2022/11/25 00:51:22;;;;;;;16.63;7.55;;;;;;;;;;1039522;28;20105;-76
2022/11/25 00:51:53;;;;;;;17.15;7.57;;;;;;;;;;1039209;28;20021;-76
2022/11/25 00:52:25;;;;;;;9.82;5.43;;;;;;;;;;1039415;28;20489;-76
2022/11/25 00:52:55;;;;;;;15.07;7.65;;;;;;;;;;1039128;28;20025;-76
2022/11/25 00:53:26;;;;;;;13.23;6.72;;;;;;;;;;1039143;28;20017;-76
2022/11/25 00:53:56;;;;;;;15.02;8.43;;;;;;;;;;1038931;28;20115;-76
2022/11/25 00:54:27;;;;;;;22.33;9.30;;;;;;;;;;1039541;28;20017;-76
2022/11/25 00:54:57;;;;;;;11.20;7.78;;;;;;;;;;1038583;28;20110;-76
2022/11/25 00:56:11;;;;;;;18.17;7.40;;;;;;;;;;1038800;28;20547;-76
2022/11/25 00:56:18;;;;;;;19.35;6.50;;;;;;;;;;1039379;28;20035;-76
2022/11/25 00:56:49;;;;;;;11.38;7.78;;;;;;;;;;1039431;28;20033;-76
2022/11/25 00:57:21;;;;;;;15.30;8.13;;;;;;;;;;1039137;28;20055;-76
2022/11/25 00:57:51;;;;;;;25.23;7.20;;;;;;;;;;1039208;28;20049;-76
2022/11/25 00:58:22;;;;;;;16.73;7.22;;;;;;;;;;1039297;28;20030;-76
2022/11/25 00:58:53;;;;;;;17.98;7.65;;;;;;;;;;1038884;28;20035;-76
2022/11/25 00:59:23;;;;;;;22.17;10.10;;;;;;;;;;1039171;28;20105;-76
2022/11/25 00:59:54;;;;;;;13.10;6.57;;;;;;;;;;1039111;28;20022;-76
2022/11/25 01:00:24;;;;;;;18.23;7.40;;;;;;;;;;1038929;28;20398;-76
2022/11/25 01:01:00;;;;;;;11.48;7.22;;;;;;;;;;1039573;28;20504;-76
2022/11/25 01:01:30;;;;;;;16.95;6.55;;;;;;;;;;1039572;28;20026;-76
2022/11/25 01:02:01;;;;;;;18.08;6.95;;;;;;;;;;1039947;28;20025;-76
2022/11/25 01:02:32;;;;;;;18.90;5.53;;;;;;;;;;1040526;28;20025;-76
2022/11/25 01:03:02;;;;;;;13.02;7.60;;;;;;;;;;1040119;28;20021;-76
2022/11/25 01:03:35;;;;;;;12.20;6.95;;;;;;;;;;1040371;28;20025;-76
2022/11/25 01:04:06;;;;;;;15.93;6.72;;;;;;;;;;1039640;28;20021;-76
2022/11/25 01:04:37;;;;;;;16.92;6.68;;;;;;;;;;1040225;28;20104;-76
2022/11/25 01:05:07;;;;;;;18.13;8.38;;;;;;;;;;1040456;28;20109;-76
2022/11/25 01:05:38;;;;;;;16.52;6.80;;;;;;;;;;1039900;28;20026;-76
2022/11/25 01:06:09;;;;;;;13.88;7.00;;;;;;;;;;1039965;28;20087;-76
2022/11/25 01:06:40;;;;;;;19.50;10.18;;;;;;;;;;1040289;28;20584;-76
2022/11/25 01:07:11;;;;;;;18.48;7.75;;;;;;;;;;1039844;28;20025;-76
2022/11/25 01:07:41;;;;;;;20.23;7.40;;;;;;;;;;1040215;28;20021;-76
2022/11/25 01:08:13;;;;;;;17.05;8.00;;;;;;;;;;1040078;28;20029;-76
2022/11/25 01:08:43;;;;;;;15.20;7.47;;;;;;;;;;1039741;28;20017;-76
2022/11/25 01:09:14;;;;;;;20.15;8.15;;;;;;;;;;1039936;28;20105;-76
2022/11/25 01:09:45;;;;;;;12.82;6.88;;;;;;;;;;1035633;28;20061;-77
2022/11/25 01:10:15;;;;;;;17.52;8.13;;;;;;;;;;1033172;28;20081;-77
2022/11/25 01:10:46;;;;;;;12.68;6.78;;;;;;;;;;1037334;28;20086;-77
2022/11/25 01:11:17;;;;;;;17.00;6.88;;;;;;;;;;1037885;28;20076;-77
2022/11/25 01:11:51;;;;;;;23.98;8.75;;;;;;;;;;1039571;28;20056;-77
2022/11/25 01:12:21;;;;;;;15.32;8.00;;;;;;;;;;1039454;28;20445;-77
2022/11/25 01:12:52;;;;;;;17.77;8.45;;;;;;;;;;1039264;28;20029;-77
2022/11/25 01:13:23;;;;;;;16.20;7.45;;;;;;;;;;1039220;28;20523;-77
2022/11/25 01:13:55;;;;;;;21.67;10.90;;;;;;;;;;1038532;28;20182;-77
2022/11/25 01:14:25;;;;;;;24.85;7.80;;;;;;;;;;1039110;28;20026;-77
2022/11/25 01:14:56;;;;;;;14.73;8.95;;;;;;;;;;1039651;28;20028;-77
2022/11/25 01:15:26;;;;;;;29.10;9.70;;;;;;;;;;1039844;28;20029;-77
2022/11/25 01:16:00;;;;;;;23.13;9.38;;;;;;;;;;1039370;28;20013;-77
2022/11/25 01:16:30;;;;;;;16.80;8.38;;;;;;;;;;1035237;28;20064;-77
2022/11/25 01:17:01;;;;;;;16.00;9.00;;;;;;;;;;1036138;28;20030;-77
2022/11/25 01:17:31;;;;;;;17.52;7.85;;;;;;;;;;1039495;28;20025;-77
2022/11/25 01:18:02;;;;;;;17.48;8.93;;;;;;;;;;1032698;28;20026;-77
2022/11/25 01:18:33;;;;;;;14.52;9.70;;;;;;;;;;1038184;28;20018;-77
2022/11/25 01:19:03;;;;;;;23.80;9.13;;;;;;;;;;1034549;28;20017;-77
2022/11/25 01:19:38;;;;;;;17.48;8.25;;;;;;;;;;1038594;28;20115;-77
2022/11/25 01:20:09;;;;;;;28.65;10.25;;;;;;;;;;1039354;28;20021;-79
2022/11/25 01:20:40;;;;;;;24.75;11.07;;;;;;;;;;1040220;28;20343;-77
2022/11/25 01:21:11;;;;;;;29.60;9.80;;;;;;;;;;1039367;28;20144;-77
2022/11/25 01:21:41;;;;;;;27.17;10.68;;;;;;;;;;1040522;28;20556;-77
2022/11/25 01:22:12;;;;;;;25.75;10.70;;;;;;;;;;1039645;28;20017;-78
2022/11/25 01:22:43;;;;;;;29.50;11.50;;;;;;;;;;1042592;28;20017;-78
2022/11/25 01:23:14;;;;;;;22.88;9.52;;;;;;;;;;1035463;28;20021;-78
2022/11/25 01:23:45;;;;;;;17.60;9.73;;;;;;;;;;1038640;28;20049;-78
2022/11/25 01:24:16;;;;;;;27.80;10.70;;;;;;;;;;1034730;28;20060;-78
2022/11/25 01:24:46;;;;;;;21.75;9.50;;;;;;;;;;1038013;28;20014;-78
2022/11/25 01:25:17;;;;;;;20.40;9.18;;;;;;;;;;1038507;28;20018;-79
2022/11/25 01:25:47;;;;;;;26.25;8.90;;;;;;;;;;1036067;28;20032;-79
2022/11/25 01:26:19;;;;;;;18.00;8.52;;;;;;;;;;1041599;28;20085;-79
2022/11/25 01:26:50;;;;;;;28.60;9.63;;;;;;;;;;1039492;28;20030;-80
2022/11/25 01:27:20;;;;;;;21.02;9.95;;;;;;;;;;1040533;28;20029;-80
2022/11/25 01:27:51;;;;;;;23.30;10.15;;;;;;;;;;1041154;28;20025;-80
2022/11/25 01:28:22;;;;;;;21.08;9.02;;;;;;;;;;1043554;28;20108;-80
2022/11/25 01:28:53;;;;;;;20.35;9.70;;;;;;;;;;1040597;28;20037;-80
2022/11/25 01:29:24;;;;;;;21.63;10.98;;;;;;;;;;1044064;28;21452;-80
2022/11/25 01:29:55;;;;;;;21.13;8.77;;;;;;;;;;1042014;28;20021;-80
2022/11/25 01:30:26;;;;;;;39.30;9.27;;;;;;;;;;1039619;28;20576;-80
2022/11/25 01:31:00;;;;;;;26.83;9.45;;;;;;;;;;1043620;28;20104;-80
2022/11/25 01:31:32;;;;;;;17.75;9.93;;;;;;;;;;1038019;28;20029;-81
2022/11/25 01:32:02;;;;;;;28.88;9.90;;;;;;;;;;1041242;28;20028;-80
2022/11/25 01:32:33;;;;;;;29.73;10.32;;;;;;;;;;1038979;28;20100;-82
2022/11/25 01:33:04;;;;;;;23.23;10.05;;;;;;;;;;1042160;28;20013;-79
2022/11/25 01:33:34;;;;;;;21.50;9.38;;;;;;;;;;1035381;28;20358;-78
2022/11/25 01:34:12;;;;;;;21.15;9.90;;;;;;;;;;1036385;28;20045;-79
2022/11/25 01:34:43;;;;;;;34.58;11.90;;;;;;;;;;1039964;28;20029;-78
2022/11/25 01:35:14;;;;;;;23.27;11.80;;;;;;;;;;1037454;28;20025;-81
2022/11/25 01:35:44;;;;;;;21.45;10.35;;;;;;;;;;1058654;23;20016;-75
2022/11/25 01:36:16;;;;;;;35.00;12.52;;;;;;;;;;1043652;28;20025;-76
2022/11/25 01:36:47;;;;;;;29.30;13.60;;;;;;;;;;1043888;28;20033;-75
2022/11/25 01:37:18;;;;;;;28.00;11.90;;;;;;;;;;1039956;28;20117;-76
2022/11/25 01:37:48;;;;;;;25.98;14.00;;;;;;;;;;1044453;28;20017;-75
2022/11/25 01:38:19;;;;;;;26.90;13.02;;;;;;;;;;1038838;28;20033;-76
2022/11/25 01:38:52;;;;;;;30.02;13.52;;;;;;;;;;1034149;28;20083;-76
2022/11/25 01:39:23;;;;;;;30.60;12.40;;;;;;;;;;1040058;28;20018;-76
2022/11/25 01:39:55;;;;;;;32.83;14.88;;;;;;;;;;1036242;28;20057;-76
2022/11/25 01:40:27;;;;;;;34.78;15.27;;;;;;;;;;1039883;28;20164;-76
2022/11/25 01:40:58;;;;;;;40.97;15.35;;;;;;;;;;1040040;28;20036;-76
2022/11/25 01:41:30;;;;;;;33.88;13.45;;;;;;;;;;1036143;28;20038;-76
2022/11/25 01:42:02;;;;;;;32.45;14.40;;;;;;;;;;1039125;28;20050;-76
2022/11/25 01:42:33;;;;;;;33.75;15.95;;;;;;;;;;1040010;28;20052;-76
2022/11/25 01:43:05;;;;;;;33.08;15.70;;;;;;;;;;1039739;28;20429;-76
2022/11/25 01:43:36;;;;;;;33.88;16.35;;;;;;;;;;1039611;28;20032;-75
2022/11/25 01:44:07;;;;;;;42.08;15.45;;;;;;;;;;1039735;28;20056;-75
2022/11/25 01:44:38;;;;;;;30.83;15.60;;;;;;;;;;1036172;28;20018;-76
2022/11/25 01:45:27;;;;;;;37.40;15.70;;;;;;;;;;1039600;28;20572;-76
2022/11/25 01:46:08;;;;;;;38.70;15.88;;;;;;;;;;1040157;28;20032;-76
2022/11/25 01:46:50;;;;;;;27.38;14.25;;;;;;;;;;1039832;28;20022;-76
2022/11/25 01:47:25;;;;;;;33.67;16.58;;;;;;;;;;1040030;28;20018;-76
2022/11/25 01:47:57;;;;;;;33.75;15.93;;;;;;;;;;1039341;28;20489;-76
2022/11/25 01:48:41;;;;;;;38.47;16.75;;;;;;;;;;1037997;28;20029;-76
2022/11/25 01:49:14;;;;;;;27.15;12.18;;;;;;;;;;1040076;28;20618;-76
2022/11/25 01:49:50;;;;;;;21.10;10.65;;;;;;;;;;1039840;28;20044;-75
2022/11/25 01:50:23;;;;;;;32.80;11.38;;;;;;;;;;1039411;28;20513;-75
2022/11/25 01:50:54;;;;;;;23.75;12.85;;;;;;;;;;1035659;28;20108;-75
2022/11/25 01:51:33;;;;;;;26.83;11.90;;;;;;;;;;1034167;28;20087;-75
2022/11/25 01:52:06;;;;;;;42.60;14.00;;;;;;;;;;1035458;28;20117;-76
2022/11/25 01:52:42;;;;;;;24.13;13.07;;;;;;;;;;1034682;28;20260;-76
2022/11/25 01:53:15;;;;;;;25.80;11.07;;;;;;;;;;1038402;28;20018;-75
2022/11/25 01:53:46;;;;;;;17.95;10.93;;;;;;;;;;1039799;28;20072;-76
2022/11/25 01:54:19;;;;;;;29.23;12.02;;;;;;;;;;1039761;28;20060;-75
2022/11/25 01:54:53;;;;;;;30.83;9.60;;;;;;;;;;1039868;28;20468;-76
2022/11/25 01:55:26;;;;;;;37.28;12.50;;;;;;;;;;1039406;28;20095;-75
2022/11/25 01:55:59;;;;;;;24.52;10.52;;;;;;;;;;1039705;28;20021;-75
2022/11/25 01:56:32;;;;;;;22.08;9.93;;;;;;;;;;1036088;28;20028;-75
2022/11/25 01:57:08;;;;;;;22.65;10.02;;;;;;;;;;1032297;28;20103;-75
2022/11/25 01:57:39;;;;;;;23.48;11.13;;;;;;;;;;1031027;28;20026;-75
2022/11/25 01:58:17;;;;;;;28.52;11.77;;;;;;;;;;1032753;28;20133;-75
2022/11/25 01:58:49;;;;;;;35.17;10.73;;;;;;;;;;1037253;28;20402;-75
2022/11/25 01:59:19;;;;;;;40.13;15.32;;;;;;;;;;1036608;28;21015;-75
2022/11/25 01:59:52;;;;;;;27.60;11.63;;;;;;;;;;1039821;28;20013;-76
2022/11/25 02:00:23;;;;;;;46.13;11.32;;;;;;;;;;1036757;28;20405;-75
2022/11/25 02:00:53;;;;;;;34.85;10.23;;;;;;;;;;1038386;28;20021;-75
2022/11/25 02:01:24;;;;;;;24.98;8.50;;;;;;;;;;1040447;28;20497;-77
2022/11/25 02:01:59;;;;;;;24.75;8.30;;;;;;;;;;1039608;28;20029;-77
2022/11/25 02:02:30;;;;;;;29.98;10.02;;;;;;;;;;1046479;23;20064;-75
2022/11/25 02:03:01;;;;;;;30.42;10.10;;;;;;;;;;1043274;28;20095;-76
2022/11/25 02:03:35;;;;;;;24.13;12.13;;;;;;;;;;1042832;28;20119;-75
2022/11/25 02:04:06;;;;;;;26.20;12.15;;;;;;;;;;1035597;28;20076;-76
2022/11/25 02:04:38;;;;;;;22.60;11.43;;;;;;;;;;1039840;28;20133;-74
2022/11/25 02:05:11;;;;;;;28.80;13.27;;;;;;;;;;1039039;28;20021;-75
2022/11/25 02:06:05;;;;;;;32.78;13.50;;;;;;;;;;1039393;28;20021;-75
2022/11/25 02:06:39;;;;;;;33.92;13.73;;;;;;;;;;1028015;28;20019;-75
2022/11/25 02:07:13;;;;;;;36.05;12.65;;;;;;;;;;1039057;28;20710;-75
2022/11/25 02:07:45;;;;;;;32.72;10.93;;;;;;;;;;1039592;28;20105;-75
2022/11/25 02:08:17;;;;;;;37.50;13.35;;;;;;;;;;1040828;28;20120;-75
2022/11/25 02:08:49;;;;;;;34.10;13.38;;;;;;;;;;1039028;28;20072;-74
2022/11/25 02:09:20;;;;;;;40.33;12.93;;;;;;;;;;1038325;28;20025;-75
2022/11/25 02:09:51;;;;;;;44.03;13.80;;;;;;;;;;1039316;28;20075;-76
2022/11/25 02:10:24;;;;;;;44.40;14.82;;;;;;;;;;1038820;28;20022;-76
2022/11/25 02:10:55;;;;;;;36.08;14.15;;;;;;;;;;1039325;28;20120;-76
2022/11/25 02:11:26;;;;;;;51.10;15.88;;;;;;;;;;1034836;28;20419;-76
2022/11/25 02:11:57;;;;;;;49.72;14.70;;;;;;;;;;1036172;28;20068;-76
2022/11/25 02:12:29;;;;;;;41.25;14.10;;;;;;;;;;1035694;28;20436;-75
2022/11/25 02:12:59;;;;;;;33.20;15.00;;;;;;;;;;1034840;28;20029;-77
2022/11/25 02:13:31;;;;;;;35.38;14.23;;;;;;;;;;1038509;28;20108;-76
2022/11/25 02:14:02;;;;;;;39.13;12.95;;;;;;;;;;1038863;28;20397;-75
2022/11/25 02:14:33;;;;;;;43.42;14.73;;;;;;;;;;1038608;28;20032;-76
2022/11/25 02:15:04;;;;;;;35.28;14.05;;;;;;;;;;1038225;28;20311;-75
2022/11/25 02:15:34;;;;;;;38.47;13.55;;;;;;;;;;1038409;28;20029;-76
2022/11/25 02:16:05;;;;;;;38.63;14.52;;;;;;;;;;1039433;28;20437;-76
2022/11/25 02:16:36;;;;;;;36.83;13.65;;;;;;;;;;1038524;28;20025;-76
2022/11/25 02:17:06;;;;;;;34.95;14.80;;;;;;;;;;1039454;28;20496;-75
2022/11/25 02:17:37;;;;;;;37.60;16.05;;;;;;;;;;1039582;28;20460;-75
2022/11/25 02:18:08;;;;;;;51.28;16.00;;;;;;;;;;1038973;28;20446;-75
2022/11/25 02:18:39;;;;;;;43.70;14.57;;;;;;;;;;1038545;28;20048;-75
2022/11/25 02:19:17;;;;;;;39.90;13.80;;;;;;;;;;1039467;28;20029;-76
2022/11/25 02:19:55;;;;;;;43.70;16.65;;;;;;;;;;1038233;28;20451;-75
2022/11/25 02:20:26;;;;;;;27.88;13.05;;;;;;;;;;1039397;28;20113;-75
2022/11/25 02:20:57;;;;;;;47.33;15.18;;;;;;;;;;1039107;28;20032;-75
2022/11/25 02:21:38;;;;;;;37.15;14.65;;;;;;;;;;1036169;28;20026;-77
2022/11/25 02:22:14;;;;;;;37.17;15.23;;;;;;;;;;1035721;28;20021;-76
2022/11/25 02:23:03;;;;;;;46.70;16.00;;;;;;;;;;1037817;28;20036;-77
2022/11/25 02:23:43;;;;;;;38.95;15.43;;;;;;;;;;1039488;28;20021;-75
2022/11/25 02:24:17;;;;;;;38.60;13.25;;;;;;;;;;1039407;28;20022;-76
2022/11/25 02:24:50;;;;;;;35.13;14.57;;;;;;;;;;1039743;28;20030;-75
2022/11/25 02:25:23;;;;;;;33.55;14.95;;;;;;;;;;1038081;28;20025;-76
2022/11/25 02:25:53;;;;;;;35.72;13.98;;;;;;;;;;1039185;28;20068;-76
2022/11/25 02:26:24;;;;;;;54.45;13.98;;;;;;;;;;1039537;28;20021;-75
2022/11/25 02:26:54;;;;;;;46.97;12.95;;;;;;;;;;1037169;28;20412;-75
2022/11/25 02:27:26;;;;;;;32.00;12.27;;;;;;;;;;1038599;28;20033;-76
2022/11/25 02:28:01;;;;;;;48.38;13.68;;;;;;;;;;1038208;28;20112;-76
2022/11/25 02:28:33;;;;;;;38.08;14.63;;;;;;;;;;1037858;28;20021;-76
2022/11/25 02:29:03;;;;;;;31.75;13.18;;;;;;;;;;1038015;28;20030;-76
2022/11/25 02:29:34;;;;;;;29.67;13.18;;;;;;;;;;1035404;28;20080;-76
2022/11/25 02:30:05;;;;;;;37.38;13.00;;;;;;;;;;1031861;28;20386;-76
2022/11/25 02:30:36;;;;;;;43.22;16.75;;;;;;;;;;1030678;28;20403;-76
2022/11/25 02:31:07;;;;;;;55.17;16.75;;;;;;;;;;1036596;28;20084;-76
2022/11/25 02:31:38;;;;;;;44.38;15.40;;;;;;;;;;1038190;28;20022;-76
2022/11/25 02:32:09;;;;;;;40.10;16.52;;;;;;;;;;1037335;28;20022;-76
2022/11/25 02:32:46;;;;;;;46.15;15.65;;;;;;;;;;1037886;28;20199;-76
2022/11/25 02:33:18;;;;;;;39.03;11.95;;;;;;;;;;1038818;28;20701;-77
2022/11/25 02:33:49;;;;;;;46.38;16.00;;;;;;;;;;1039103;28;20021;-76
2022/11/25 02:34:19;;;;;;;31.77;14.07;;;;;;;;;;1039790;28;20037;-77
2022/11/25 02:34:50;;;;;;;44.72;16.52;;;;;;;;;;1039334;28;20060;-77
2022/11/25 02:35:34;;;;;;;48.45;16.42;;;;;;;;;;1038708;28;20076;-77
2022/11/25 02:36:06;;;;;;;44.85;15.85;;;;;;;;;;1038615;28;20505;-76
2022/11/25 02:36:37;;;;;;;58.38;17.50;;;;;;;;;;1033503;28;20108;-76
2022/11/25 02:37:07;;;;;;;44.95;19.15;;;;;;;;;;1030587;28;20507;-76
2022/11/25 02:37:38;;;;;;;43.35;18.27;;;;;;;;;;1030760;28;20117;-77
2022/11/25 02:38:11;;;;;;;36.92;16.63;;;;;;;;;;1026555;28;20105;-76
2022/11/25 02:38:47;;;;;;;49.25;19.08;;;;;;;;;;1035757;28;20029;-75
2022/11/25 02:39:18;;;;;;;35.70;17.35;;;;;;;;;;1036566;28;20094;-76
2022/11/25 02:39:49;;;;;;;36.58;16.67;;;;;;;;;;1031934;28;20090;-76
2022/11/25 02:40:20;;;;;;;39.10;16.15;;;;;;;;;;1031488;28;20061;-76
2022/11/25 02:40:56;;;;;;;35.03;15.98;;;;;;;;;;1027936;28;20022;-76
2022/11/25 02:41:33;;;;;;;45.50;17.58;;;;;;;;;;1029941;28;20026;-77
2022/11/25 02:42:03;;;;;;;42.47;16.80;;;;;;;;;;1035723;28;20026;-76
2022/11/25 02:42:35;;;;;;;40.03;17.05;;;;;;;;;;1036695;28;20549;-76
2022/11/25 02:43:05;;;;;;;48.97;20.45;;;;;;;;;;1038205;28;20515;-76
2022/11/25 02:43:36;;;;;;;44.40;19.75;;;;;;;;;;1039196;28;20029;-77
2022/11/25 02:44:07;;;;;;;55.00;20.52;;;;;;;;;;1040639;28;20021;-77
2022/11/25 02:44:38;;;;;;;49.63;20.83;;;;;;;;;;1037667;28;20049;-77
2022/11/25 02:45:11;;;;;;;53.35;22.77;;;;;;;;;;1034828;28;20084;-77
2022/11/25 02:45:44;;;;;;;52.25;23.08;;;;;;;;;;1037484;28;20064;-77
2022/11/25 02:46:17;;;;;;;55.97;23.42;;;;;;;;;;1033357;28;20117;-77
2022/11/25 02:46:47;;;;;;;48.35;23.95;;;;;;;;;;1031849;28;20033;-77
2022/11/25 02:47:18;;;;;;;51.13;20.52;;;;;;;;;;1032161;28;20540;-77
2022/11/25 02:47:49;;;;;;;41.22;21.60;;;;;;;;;;1034192;28;20030;-77
2022/11/25 02:48:21;;;;;;;58.85;22.10;;;;;;;;;;1037979;28;20029;-76
2022/11/25 02:48:53;;;;;;;54.15;22.67;;;;;;;;;;1038262;28;20029;-77
2022/11/25 02:49:27;;;;;;;47.42;22.85;;;;;;;;;;1037828;28;20523;-76
2022/11/25 02:49:58;;;;;;;54.00;23.10;;;;;;;;;;1036455;28;20037;-76
2022/11/25 02:50:29;;;;;;;58.10;22.08;;;;;;;;;;1038150;28;20120;-76
2022/11/25 02:51:00;;;;;;;63.45;20.20;;;;;;;;;;1034292;28;20245;-76
2022/11/25 02:51:31;;;;;;;55.25;22.73;;;;;;;;;;1033974;28;20394;-76
2022/11/25 02:52:01;;;;;;;42.17;18.55;;;;;;;;;;1032840;28;20493;-76
2022/11/25 02:52:32;;;;;;;39.55;17.92;;;;;;;;;;1034844;28;20035;-76
2022/11/25 02:53:04;;;;;;;36.47;15.07;;;;;;;;;;1033805;28;21203;-78
2022/11/25 02:53:35;;;;;;;38.70;16.08;;;;;;;;;;1034137;28;20544;-77
2022/11/25 02:54:06;;;;;;;50.90;16.35;;;;;;;;;;1037843;28;20032;-76
2022/11/25 02:54:37;;;;;;;42.20;16.02;;;;;;;;;;1036058;28;20116;-76
2022/11/25 02:55:07;;;;;;;44.47;17.02;;;;;;;;;;1037845;28;20040;-76
2022/11/25 02:55:38;;;;;;;43.72;15.30;;;;;;;;;;1034957;28;20025;-77
2022/11/25 02:56:10;;;;;;;40.15;17.52;;;;;;;;;;1034335;28;20460;-76
2022/11/25 02:56:40;;;;;;;35.15;14.10;;;;;;;;;;1041002;23;20026;-76
2022/11/25 02:57:11;;;;;;;58.55;20.77;;;;;;;;;;1031168;28;20602;-76
2022/11/25 02:57:41;;;;;;;67.85;26.17;;;;;;;;;;1034444;28;20569;-76
2022/11/25 02:58:12;;;;;;;53.78;24.30;;;;;;;;;;1034901;28;20115;-75
2022/11/25 02:58:43;;;;;;;71.00;29.38;;;;;;;;;;1033183;28;20462;-75
2022/11/25 02:59:14;;;;;;;67.43;27.63;;;;;;;;;;1031757;28;20021;-76
2022/11/25 02:59:45;;;;;;;47.33;20.17;;;;;;;;;;1034182;28;20475;-76
2022/11/25 03:00:16;;;;;;;49.25;23.55;;;;;;;;;;1032563;28;20484;-76
2022/11/25 03:00:47;;;;;;;57.13;22.27;;;;;;;;;;1032695;28;20049;-76
2022/11/25 03:01:17;;;;;;;46.03;24.83;;;;;;;;;;1028829;28;20023;-76
2022/11/25 03:01:48;;;;;;;52.58;26.35;;;;;;;;;;1030355;28;20046;-75
2022/11/25 03:02:19;;;;;;;53.67;25.13;;;;;;;;;;1027988;28;20030;-76
2022/11/25 03:02:52;;;;;;;66.25;26.42;;;;;;;;;;1024174;28;20042;-77
2022/11/25 03:03:23;;;;;;;70.88;26.92;;;;;;;;;;1024895;28;20031;-76
2022/11/25 03:03:53;;;;;;;67.03;27.27;;;;;;;;;;1026374;28;20042;-77
2022/11/25 03:04:24;;;;;;;59.65;26.90;;;;;;;;;;1030310;28;20027;-75
2022/11/25 03:04:55;;;;;;;53.55;24.35;;;;;;;;;;1032738;28;20029;-76
2022/11/25 03:05:26;;;;;;;71.85;27.77;;;;;;;;;;1032818;28;20022;-77
2022/11/25 03:05:57;;;;;;;72.50;30.13;;;;;;;;;;1027695;28;20023;-77
2022/11/25 03:06:27;;;;;;;59.63;28.20;;;;;;;;;;1027180;28;20038;-77
2022/11/25 03:06:58;;;;;;;65.32;27.50;;;;;;;;;;1026158;28;20093;-76
2022/11/25 03:07:29;;;;;;;69.82;26.70;;;;;;;;;;1027600;28;20396;-76
2022/11/25 03:07:59;;;;;;;50.33;25.23;;;;;;;;;;1032961;28;20176;-76
2022/11/25 03:08:30;;;;;;;56.03;23.75;;;;;;;;;;1031723;28;20022;-77
2022/11/25 03:09:02;;;;;;;44.97;22.48;;;;;;;;;;1030906;28;20588;-76
2022/11/25 03:09:33;;;;;;;53.70;24.38;;;;;;;;;;1031641;28;20615;-75
2022/11/25 03:10:04;;;;;;;69.55;25.33;;;;;;;;;;1033163;28;20057;-75
2022/11/25 03:10:35;;;;;;;46.67;24.63;;;;;;;;;;1032836;28;20060;-77